createdAt,value
2019-04-14T00:02:31.310Z,97.20
2019-04-14T00:05:03.971Z,97.30
2019-04-14T00:07:36.320Z,97.50
2019-04-14T00:10:09.448Z,97.60
2019-04-14T00:12:40.533Z,97.50
2019-04-14T00:15:25.887Z,97.60
2019-04-14T00:17:45.634Z,97.50
2019-04-14T00:20:18.595Z,97.50
2019-04-14T00:22:49.145Z,97.50
2019-04-14T00:25:19.576Z,97.40
2019-04-14T00:27:52.098Z,98.10
2019-04-14T00:30:25.079Z,97.40
2019-04-14T00:32:59.505Z,97.50
2019-04-14T00:35:56.009Z,97.40
2019-04-14T00:38:30.273Z,97.50
2019-04-14T00:41:39.471Z,97.50
2019-04-14T00:44:23.193Z,97.90
2019-04-14T00:46:58.240Z,97.60
2019-04-14T00:49:29.010Z,97.60
2019-04-14T00:51:59.839Z,97.40
2019-04-14T00:54:30.464Z,97.30
2019-04-14T00:57:01.193Z,97.50
2019-04-14T00:59:31.537Z,96.90
2019-04-14T01:02:01.954Z,97.30
2019-04-14T01:04:32.278Z,97.30
2019-04-14T01:07:02.791Z,97.20
2019-04-14T01:09:33.060Z,97.20
2019-04-14T01:12:03.913Z,97.30
2019-04-14T01:14:34.306Z,97.10
2019-04-14T01:17:04.861Z,97.00
2019-04-14T01:19:35.514Z,96.80
2019-04-14T01:22:07.474Z,97.10
2019-04-14T01:24:38.196Z,96.60
2019-04-14T01:27:08.666Z,97.00
2019-04-14T01:29:39.034Z,97.30
2019-04-14T01:32:11.216Z,97.00
2019-04-14T01:34:41.781Z,97.50
2019-04-14T01:37:12.127Z,97.40
2019-04-14T01:39:43.461Z,97.70
2019-04-14T01:42:13.992Z,97.30
2019-04-14T01:44:46.055Z,97.80
2019-04-14T01:47:16.572Z,97.70
2019-04-14T01:49:46.926Z,97.50
2019-04-14T01:52:36.273Z,97.40
2019-04-14T01:55:29.070Z,97.50
2019-04-14T01:58:25.057Z,97.60
2019-04-14T02:01:20.326Z,97.30
2019-04-14T02:03:51.930Z,97.20
2019-04-14T02:06:22.394Z,97.40
2019-04-14T02:08:54.693Z,97.10
2019-04-14T02:11:27.032Z,97.10
2019-04-14T02:13:57.620Z,97.50
2019-04-14T02:16:36.299Z,97.40
2019-04-14T02:19:00.367Z,97.60
2019-04-14T02:21:32.420Z,97.60
2019-04-14T02:24:03.156Z,97.40
2019-04-14T02:26:39.328Z,97.80
2019-04-14T02:29:09.997Z,98.00
2019-04-14T02:32:13.795Z,97.50
2019-04-14T02:34:43.801Z,97.60
2019-04-14T02:37:10.744Z,97.80
2019-04-14T02:39:46.679Z,98.00
2019-04-14T02:44:51.853Z,97.80
2019-04-14T02:47:38.832Z,97.60
2019-04-14T02:49:51.211Z,97.40
2019-04-14T02:57:38.411Z,97.70
2019-04-14T03:00:00.788Z,97.80
2019-04-14T03:07:37.866Z,97.40
2019-04-14T03:10:04.858Z,97.00
2019-04-14T03:15:07.063Z,97.60
2019-04-14T03:18:21.786Z,97.70
2019-04-14T03:20:45.628Z,97.00
2019-04-14T03:23:53.422Z,97.30
2019-04-14T03:26:11.639Z,97.40
2019-04-14T03:28:47.236Z,97.50
2019-04-14T03:31:37.535Z,97.20
2019-04-14T03:34:17.032Z,97.40
2019-04-14T03:37:10.559Z,97.00
2019-04-14T03:39:00.298Z,97.40
2019-04-14T03:43:54.279Z,97.20
2019-04-14T03:46:36.177Z,97.40
2019-04-14T03:49:10.076Z,97.10
2019-04-14T03:54:06.153Z,96.90
2019-04-14T03:56:47.292Z,97.00
2019-04-14T03:59:19.460Z,96.60
2019-04-14T04:01:50.176Z,96.90
2019-04-14T04:04:20.688Z,96.70
2019-04-14T04:06:51.136Z,96.90
2019-04-14T04:09:25.730Z,96.80
2019-04-14T04:11:56.413Z,97.10
2019-04-14T04:14:27.099Z,96.80
2019-04-14T04:17:16.902Z,96.80
2019-04-14T04:20:02.466Z,96.80
2019-04-14T04:22:58.722Z,96.40
2019-04-14T04:25:35.353Z,96.40
2019-04-14T04:28:27.791Z,96.70
2019-04-14T04:31:04.527Z,96.30
2019-04-14T04:33:57.257Z,96.60
2019-04-14T04:36:35.709Z,96.60
2019-04-14T04:39:14.961Z,96.60
2019-04-14T04:41:47.957Z,96.80
2019-04-14T04:44:18.461Z,96.90
2019-04-14T04:46:48.825Z,96.50
2019-04-14T04:49:23.105Z,96.90
2019-04-14T04:51:52.944Z,96.60
2019-04-14T04:54:25.732Z,96.40
2019-04-14T04:56:56.139Z,96.40
2019-04-14T04:59:27.686Z,96.30
2019-04-14T05:01:58.194Z,96.30
2019-04-14T05:04:28.888Z,96.30
2019-04-14T05:07:01.488Z,96.30
2019-04-14T05:09:51.351Z,96.30
2019-04-14T05:12:41.199Z,96.20
2019-04-14T05:15:38.570Z,96.20
2019-04-14T05:18:22.659Z,95.90
2019-04-14T05:20:53.281Z,96.30
2019-04-14T05:23:23.851Z,96.10
2019-04-14T05:25:55.945Z,96.10
2019-04-14T05:28:26.804Z,96.00
2019-04-14T05:30:57.414Z,95.50
2019-04-14T05:33:27.786Z,95.90
2019-04-14T05:35:58.350Z,95.50
2019-04-14T05:38:32.225Z,95.50
2019-04-14T05:41:02.741Z,95.70
2019-04-14T05:43:40.630Z,96.10
2019-04-14T05:46:05.606Z,95.50
2019-04-14T05:48:35.965Z,95.70
2019-04-14T05:51:08.937Z,95.60
2019-04-14T05:53:39.431Z,95.60
2019-04-14T05:56:09.978Z,95.50
2019-04-14T05:58:40.470Z,95.50
2019-04-14T06:01:12.378Z,95.40
2019-04-14T06:03:43.240Z,95.80
2019-04-14T06:06:15.145Z,95.60
2019-04-14T06:08:45.414Z,95.10
2019-04-14T06:11:16.843Z,95.10
2019-04-14T06:13:47.566Z,95.10
2019-04-14T06:16:58.784Z,95.20
2019-04-14T06:21:00.013Z,95.70
2019-04-14T06:40:14.185Z,93.50
2019-04-14T06:43:24.645Z,93.60
2019-04-14T06:46:13.263Z,93.50
2019-04-14T06:49:14.437Z,93.20
2019-04-14T06:52:52.615Z,92.90
2019-04-14T06:56:32.687Z,92.60
2019-04-14T07:03:19.493Z,91.60
2019-04-14T07:06:47.333Z,90.80
2019-04-14T07:09:30.456Z,90.20
2019-04-14T07:12:12.767Z,89.30
2019-04-14T07:15:02.420Z,87.90
2019-04-14T07:17:56.863Z,86.90
2019-04-14T07:22:26.313Z,86.30
2019-04-14T07:24:51.065Z,86.10
2019-04-14T07:27:51.743Z,84.30
2019-04-14T07:30:58.846Z,84.30
2019-04-14T07:33:47.814Z,84.70
2019-04-14T07:45:46.373Z,81.60
2019-04-14T07:48:27.394Z,81.20
2019-04-14T07:51:11.935Z,81.20
2019-04-14T07:54:01.790Z,81.30
2019-04-14T07:56:57.790Z,81.50
2019-04-14T07:59:42.194Z,80.90
2019-04-14T08:02:34.948Z,81.90
2019-04-14T08:05:26.180Z,80.20
2019-04-14T08:08:06.762Z,77.40
2019-04-14T08:10:38.763Z,78.80
2019-04-14T08:13:10.112Z,76.80
2019-04-14T08:15:42.198Z,76.30
2019-04-14T08:18:15.673Z,76.20
2019-04-14T08:20:49.525Z,76.10
2019-04-14T08:23:23.152Z,75.20
2019-04-14T08:26:07.340Z,75.40
2019-04-14T08:28:38.585Z,75.60
2019-04-14T08:31:09.295Z,74.50
2019-04-14T08:33:46.509Z,75.10
2019-04-14T08:36:18.063Z,72.40
2019-04-14T08:38:49.060Z,72.50
2019-04-14T08:41:20.250Z,72.30
2019-04-14T08:43:57.504Z,70.60
2019-04-14T08:46:41.569Z,69.70
2019-04-14T08:49:19.407Z,69.80
2019-04-14T08:52:20.054Z,69.20
2019-04-14T08:55:13.155Z,69.30
2019-04-14T08:58:04.208Z,66.80
2019-04-14T09:01:11.882Z,62.40
2019-04-14T09:04:00.193Z,61.40
2019-04-14T09:06:49.810Z,61.30
2019-04-14T09:09:32.573Z,59.80
2019-04-14T09:12:26.295Z,58.50
2019-04-14T09:15:00.224Z,58.10
2019-04-14T09:17:31.859Z,58.10
2019-04-14T09:20:09.282Z,57.30
2019-04-14T09:22:42.017Z,56.60
2019-04-14T09:25:17.434Z,56.50
2019-04-14T09:27:51.839Z,55.30
2019-04-14T09:30:24.335Z,56.90
2019-04-14T09:32:54.871Z,54.70
2019-04-14T09:35:27.453Z,54.30
2019-04-14T09:37:58.312Z,53.30
2019-04-14T09:40:29.804Z,53.30
2019-04-14T09:43:02.934Z,53.90
2019-04-14T09:45:33.780Z,53.90
2019-04-14T09:48:14.206Z,51.30
2019-04-14T09:51:31.228Z,51.50
2019-04-14T09:54:16.087Z,51.40
2019-04-14T09:56:50.292Z,52.40
2019-04-14T09:59:21.434Z,51.40
2019-04-14T10:01:58.075Z,49.80
2019-04-14T10:04:32.826Z,49.90
2019-04-14T10:07:04.338Z,48.60
2019-04-14T10:09:35.164Z,48.00
2019-04-14T10:12:15.538Z,48.80
2019-04-14T10:14:41.669Z,48.60
2019-04-14T10:17:13.148Z,47.50
2019-04-14T10:19:46.401Z,48.30
2019-04-14T10:22:18.107Z,45.80
2019-04-14T10:24:59.894Z,44.90
2019-04-14T10:28:10.403Z,45.80
2019-04-14T10:31:47.418Z,46.40
2019-04-14T10:34:24.175Z,47.10
2019-04-14T10:37:16.366Z,46.80
2019-04-14T10:39:47.460Z,46.40
2019-04-14T10:42:18.590Z,47.20
2019-04-14T10:44:54.445Z,49.60
2019-04-14T10:47:44.338Z,51.30
2019-04-14T10:50:31.620Z,50.80
2019-04-14T10:53:37.532Z,48.70
2019-04-14T10:56:32.041Z,48.60
2019-04-14T10:59:03.110Z,49.10
2019-04-14T11:01:52.564Z,47.80
2019-04-14T11:04:34.052Z,48.10
2019-04-14T11:07:14.792Z,47.50
2019-04-14T11:10:04.613Z,48.00
2019-04-14T11:12:41.250Z,47.80
2019-04-14T11:15:15.486Z,46.00
2019-04-14T11:17:45.735Z,43.70
2019-04-14T11:20:16.717Z,41.30
2019-04-14T11:22:47.116Z,41.60
2019-04-14T11:25:19.230Z,40.30
2019-04-14T11:27:50.296Z,39.60
2019-04-14T11:30:22.684Z,41.00
2019-04-14T11:33:26.278Z,40.70
2019-04-14T11:36:24.800Z,40.40
2019-04-14T11:39:06.997Z,40.10
2019-04-14T11:41:51.363Z,37.80
2019-04-14T11:47:45.603Z,39.50
2019-04-14T11:50:30.675Z,42.00
2019-04-14T11:56:15.479Z,41.90
2019-04-14T11:59:04.331Z,42.30
2019-04-14T12:02:07.318Z,42.40
2019-04-14T12:04:50.139Z,41.60
2019-04-14T12:07:43.036Z,42.00
2019-04-14T12:10:26.095Z,43.00
2019-04-14T12:13:25.110Z,42.20
2019-04-14T12:16:24.988Z,40.70
2019-04-14T12:19:05.549Z,40.80
2019-04-14T12:23:06.292Z,40.00
2019-04-14T12:25:33.325Z,40.40
2019-04-14T12:35:33.838Z,41.70
2019-04-14T12:38:29.832Z,39.90
2019-04-14T12:41:08.237Z,40.10
2019-04-14T12:44:24.970Z,39.80
2019-04-14T12:47:06.543Z,38.90
2019-04-14T12:49:53.990Z,38.90
2019-04-14T12:52:27.445Z,37.90
2019-04-14T12:54:58.625Z,36.80
2019-04-14T12:57:47.050Z,37.20
2019-04-14T13:00:38.458Z,38.30
2019-04-14T13:03:11.394Z,39.60
2019-04-14T13:05:43.893Z,36.40
2019-04-14T13:08:14.403Z,38.30
2019-04-14T13:10:44.976Z,38.60
2019-04-14T13:13:15.852Z,40.20
2019-04-14T13:15:47.845Z,40.40
2019-04-14T13:18:18.895Z,40.20
2019-04-14T13:20:50.898Z,39.40
2019-04-14T13:23:21.854Z,40.60
2019-04-14T13:25:52.974Z,40.70
2019-04-14T13:28:31.625Z,40.30
2019-04-14T13:31:03.631Z,40.40
2019-04-14T13:33:34.133Z,40.20
2019-04-14T13:36:09.535Z,40.40
2019-04-14T13:38:39.919Z,39.20
2019-04-14T13:41:13.680Z,38.70
2019-04-14T13:43:45.568Z,39.20
2019-04-14T13:46:16.335Z,37.30
2019-04-14T13:49:07.902Z,37.70
2019-04-14T13:51:39.624Z,38.40
2019-04-14T13:54:12.939Z,38.30
2019-04-14T13:56:43.689Z,39.30
2019-04-14T13:59:17.630Z,39.90
2019-04-14T14:02:00.382Z,40.90
2019-04-14T14:04:36.734Z,39.50
2019-04-14T14:07:19.794Z,39.10
2019-04-14T14:09:51.021Z,40.20
2019-04-14T14:12:33.402Z,39.10
2019-04-14T14:15:25.195Z,39.80
2019-04-14T14:18:13.293Z,41.70
2019-04-14T14:20:56.138Z,42.50
2019-04-14T14:23:36.505Z,42.40
2019-04-14T14:26:10.123Z,43.70
2019-04-14T14:28:40.549Z,43.80
2019-04-14T14:31:11.184Z,42.40
2019-04-14T14:33:45.323Z,43.00
2019-04-14T14:36:15.480Z,43.50
2019-04-14T14:38:46.525Z,43.40
2019-04-14T14:41:19.306Z,44.90
2019-04-14T14:43:50.644Z,45.60
2019-04-14T14:46:40.272Z,45.60
2019-04-14T14:49:27.184Z,44.80
2019-04-14T14:52:03.169Z,44.20
2019-04-14T14:54:34.003Z,44.20
2019-04-14T14:57:07.634Z,44.10
2019-04-14T14:59:38.032Z,44.40
2019-04-14T15:02:09.019Z,45.50
2019-04-14T15:04:40.596Z,45.60
2019-04-14T15:07:12.618Z,46.50
2019-04-14T15:09:43.109Z,45.80
2019-04-14T15:12:16.504Z,46.90
2019-04-14T15:14:47.149Z,46.90
2019-04-14T15:17:20.271Z,48.20
2019-04-14T15:19:50.965Z,47.60
2019-04-14T15:22:23.186Z,47.70
2019-04-14T15:24:56.701Z,47.50
2019-04-14T15:27:27.602Z,47.60
2019-04-14T15:29:59.104Z,47.50
2019-04-14T15:32:31.591Z,48.30
2019-04-14T15:35:03.335Z,49.10
2019-04-14T15:37:34.928Z,49.30
2019-04-14T15:40:05.726Z,49.00
2019-04-14T15:42:37.481Z,49.60
2019-04-14T15:45:09.643Z,50.40
2019-04-14T15:47:40.234Z,50.60
2019-04-14T15:50:10.718Z,50.60
2019-04-14T15:52:41.131Z,50.70
2019-04-14T15:55:13.939Z,51.00
2019-04-14T15:57:56.629Z,51.30
2019-04-14T16:00:47.481Z,51.80
2019-04-14T16:03:36.252Z,51.60
2019-04-14T16:06:27.000Z,52.10
2019-04-14T16:09:15.203Z,52.30
2019-04-14T16:12:04.346Z,51.60
2019-04-14T16:14:59.782Z,51.80
2019-04-14T16:17:59.972Z,52.10
2019-04-14T16:20:32.423Z,52.30
2019-04-14T16:23:05.795Z,53.30
2019-04-14T16:25:53.900Z,54.40
2019-04-14T16:28:43.478Z,54.70
2019-04-14T16:31:42.065Z,55.90
2019-04-14T16:34:27.641Z,57.40
2019-04-14T16:37:01.051Z,57.60
2019-04-14T16:39:31.873Z,58.10
2019-04-14T16:42:03.910Z,59.40
2019-04-14T16:44:34.447Z,58.30
2019-04-14T16:47:06.895Z,57.60
2019-04-14T16:49:37.590Z,57.80
2019-04-14T16:52:26.029Z,57.40
2019-04-14T16:55:02.383Z,56.60
2019-04-14T16:57:53.814Z,55.70
2019-04-14T17:00:29.807Z,55.30
2019-04-14T17:03:00.637Z,54.90
2019-04-14T17:05:32.955Z,54.10
2019-04-14T17:08:03.500Z,54.40
2019-04-14T17:10:34.144Z,54.60
2019-04-14T17:13:04.566Z,53.10
2019-04-14T17:15:48.578Z,53.00
2019-04-14T17:18:32.745Z,52.80
2019-04-14T17:21:21.114Z,53.90
2019-04-14T17:24:02.567Z,54.70
2019-04-14T17:26:41.309Z,56.70
2019-04-14T17:29:27.093Z,58.10
2019-04-14T17:32:22.964Z,58.70
2019-04-14T17:35:19.314Z,59.50
2019-04-14T17:37:59.307Z,61.00
2019-04-14T17:40:40.575Z,62.20
2019-04-14T17:43:36.843Z,62.40
2019-04-14T17:46:37.023Z,61.90
2019-04-14T17:49:28.936Z,62.30
2019-04-14T17:52:17.344Z,62.70
2019-04-14T17:55:03.051Z,62.70
2019-04-14T17:57:58.785Z,63.80
2019-04-14T18:00:53.154Z,63.60
2019-04-14T18:03:31.966Z,63.60
2019-04-14T18:06:07.122Z,64.00
2019-04-14T18:08:56.389Z,64.30
2019-04-14T18:11:41.751Z,64.50
2019-04-14T18:14:32.258Z,64.90
2019-04-14T18:17:11.820Z,65.30
2019-04-14T18:19:49.984Z,65.50
2019-04-14T18:22:26.100Z,65.70
2019-04-14T18:24:57.319Z,66.40
2019-04-14T18:27:29.257Z,66.30
2019-04-14T18:30:22.766Z,66.30
2019-04-14T18:33:07.982Z,66.70
2019-04-14T18:35:50.766Z,66.90
2019-04-14T18:38:49.982Z,67.00
2019-04-14T18:41:28.652Z,67.70
2019-04-14T18:44:19.335Z,67.80
2019-04-14T18:47:25.627Z,68.20
2019-04-14T18:50:12.451Z,68.00
2019-04-14T18:53:06.196Z,68.50
2019-04-14T18:55:56.456Z,69.20
2019-04-14T18:58:40.620Z,69.50
2019-04-14T19:01:23.095Z,69.40
2019-04-14T19:03:56.311Z,69.20
2019-04-14T19:06:28.946Z,69.70
2019-04-14T19:09:00.738Z,69.90
2019-04-14T19:11:44.728Z,70.00
2019-04-14T19:14:21.818Z,70.20
2019-04-14T19:16:59.505Z,70.50
2019-04-14T19:19:31.437Z,70.60
2019-04-14T19:22:06.500Z,70.60
2019-04-14T19:24:38.268Z,70.60
2019-04-14T19:27:09.594Z,71.30
2019-04-14T19:29:41.130Z,71.40
2019-04-14T19:32:15.142Z,71.40
2019-04-14T19:34:46.887Z,71.70
2019-04-14T19:37:22.505Z,72.40
2019-04-14T19:39:54.509Z,72.50
2019-04-14T19:42:26.518Z,72.50
2019-04-14T19:44:57.260Z,72.70
2019-04-14T19:47:31.180Z,73.30
2019-04-14T19:50:01.765Z,73.40
2019-04-14T19:52:32.511Z,73.60
2019-04-14T19:55:03.627Z,73.60
2019-04-14T19:57:37.477Z,73.90
2019-04-14T20:00:09.301Z,74.00
2019-04-14T20:02:40.328Z,74.30
2019-04-14T20:05:11.520Z,74.60
2019-04-14T20:07:42.773Z,74.70
2019-04-14T20:10:14.435Z,74.80
2019-04-14T20:12:45.132Z,74.60
2019-04-14T20:15:19.060Z,75.10
2019-04-14T20:18:14.176Z,75.50
2019-04-14T20:21:03.606Z,75.30
2019-04-14T20:24:02.790Z,75.70
2019-04-14T20:27:01.844Z,76.10
2019-04-14T20:29:36.984Z,76.00
2019-04-14T20:32:19.987Z,76.10
2019-04-14T20:34:51.881Z,75.90
2019-04-14T20:37:22.813Z,76.00
2019-04-14T20:39:53.430Z,76.20
2019-04-14T20:42:25.787Z,76.40
2019-04-14T20:44:56.830Z,76.80
2019-04-14T20:47:27.652Z,76.50
2019-04-14T20:49:58.469Z,77.00
2019-04-14T20:52:29.365Z,77.30
2019-04-14T20:55:00.199Z,77.30
2019-04-14T20:57:31.024Z,76.90
2019-04-14T21:00:02.143Z,77.00
2019-04-14T21:02:45.442Z,77.20
2019-04-14T21:05:26.756Z,77.40
2019-04-14T21:08:20.657Z,77.50
2019-04-14T21:11:10.028Z,77.60
2019-04-14T21:14:02.342Z,77.60
2019-04-14T21:16:37.344Z,77.40
2019-04-14T21:19:19.344Z,77.20
2019-04-14T21:22:01.429Z,77.20
2019-04-14T21:24:36.934Z,77.30
2019-04-14T21:27:17.200Z,77.20
2019-04-14T21:30:15.942Z,77.80
2019-04-14T21:33:11.942Z,77.30
2019-04-14T21:35:52.561Z,77.30
2019-04-14T21:38:36.986Z,77.80
2019-04-14T21:41:12.225Z,78.50
2019-04-14T21:43:42.680Z,77.80
2019-04-14T21:46:13.016Z,77.90
2019-04-14T21:48:43.549Z,78.60
2019-04-14T21:51:13.883Z,77.90
2019-04-14T21:53:46.317Z,78.10
2019-04-14T21:56:16.724Z,78.30
2019-04-14T21:59:02.169Z,78.60
2019-04-14T22:02:16.213Z,78.70
2019-04-14T22:05:04.503Z,79.00
2019-04-14T22:07:49.626Z,79.00
2019-04-14T22:10:39.919Z,78.70
2019-04-14T22:13:10.407Z,78.90
2019-04-14T22:15:41.196Z,78.80
2019-04-14T22:18:11.815Z,79.40
2019-04-14T22:20:42.329Z,79.10
2019-04-14T22:23:13.163Z,79.40
2019-04-14T22:25:44.798Z,78.70
2019-04-14T22:28:15.382Z,79.10
2019-04-14T22:30:45.945Z,79.40
2019-04-14T22:33:16.405Z,79.00
2019-04-14T22:35:46.885Z,79.40
2019-04-14T22:38:17.560Z,79.60
2019-04-14T22:40:48.016Z,79.90
2019-04-14T22:43:18.445Z,79.80
2019-04-14T22:45:49.083Z,80.10
2019-04-14T22:48:19.527Z,80.50
2019-04-14T22:50:50.044Z,80.60
2019-04-14T22:53:20.388Z,80.60
2019-04-14T22:55:50.954Z,80.90
2019-04-14T22:58:21.323Z,80.90
2019-04-14T23:01:02.448Z,81.20
2019-04-14T23:03:50.825Z,81.60
2019-04-14T23:06:31.284Z,81.90
2019-04-14T23:09:26.763Z,82.20
2019-04-14T23:12:35.849Z,82.70
2019-04-14T23:15:38.390Z,84.20
2019-04-14T23:18:24.941Z,83.60
2019-04-14T23:21:23.627Z,83.70
2019-04-14T23:24:06.423Z,84.20
2019-04-14T23:26:37.078Z,84.30
2019-04-14T23:29:07.429Z,84.50
2019-04-14T23:31:37.936Z,85.10
2019-04-14T23:34:08.469Z,85.20
2019-04-14T23:36:38.765Z,85.30
2019-04-14T23:39:11.245Z,86.50
2019-04-14T23:41:41.844Z,85.80
2019-04-14T23:44:13.326Z,86.30
2019-04-14T23:46:43.766Z,86.10
2019-04-14T23:49:14.195Z,86.20
2019-04-14T23:51:45.710Z,86.50
2019-04-14T23:54:16.211Z,86.10
2019-04-14T23:56:46.790Z,86.30
2019-04-14T23:59:17.187Z,86.50
